M I D A S
Marine Information and Data Acquisition System
Tripno 2222 of the Zeeleeuw from 2011-12-12 08:06:00 to 2011-12-12 15:59:30
Back to CruiseResearch ActivitiesStationsMapUnderway DataData graphs

EquipmentUnitsComments
TimeDGPSUTC
LatitudeDGPSDM.mWGS84
LongitudeDGPSDM.mWGS84
SpeedMeteo Stationm/sRelative wind speed
DirectionMeteo StationdegRelative wind direction
TemperatureMeteo Stationdeg CelciusAir temperature
PressureMeteo StationPaAtmospheric pressure
HumidityMeteo Station%Relative humidity
Missing or incorrect values are displayed as -999
Metereological data collected by the RV Zeeleeuw from 2011-12-12 08:09:47 to 2011-12-12 16:17:40
                                                                                    Next 1000 lines
Time Latitude Longitude Speed Direction Temperature Pressure Humidity
2011-12-12 08:09:57 51°15.472 2°53.908 17.1 305 8 100440 47
2011-12-12 08:10:02 51°15.484 2°53.891 15.3 21 8 100430 46
2011-12-12 08:10:07 51°15.495 2°53.873 15.1 307 8 100430 46
2011-12-12 08:10:12 51°15.504 2°53.86 14.4 24 8 100450 47
2011-12-12 08:10:18 51°15.518 2°53.84 13.4 306 8 100450 47
2011-12-12 08:10:23 51°15.53 2°53.822 14.2 24 8 100430 47
2011-12-12 08:10:28 51°15.542 2°53.804 16.4 308 8 100430 47
2011-12-12 08:10:32 51°15.551 2°53.791 14.5 24 8 100430 46
2011-12-12 08:10:38 51°15.565 2°53.771 17.1 307 8 100430 46
2011-12-12 08:10:43 51°15.577 2°53.755 5 315 8 100440 47
2011-12-12 08:10:48 51°15.589 2°53.738 13.5 303 8 100440 47
2011-12-12 08:10:52 51°15.598 2°53.724 12.3 27 8 100440 47
2011-12-12 08:10:58 51°15.612 2°53.704 18.4 304 8 100440 47
2011-12-12 08:11:03 51°15.624 2°53.688 16.5 26 8 100440 47
2011-12-12 08:11:08 51°15.636 2°53.672 14.4 306 8 100440 47
2011-12-12 08:11:12 51°15.646 2°53.66 15.4 21 8 100430 46
2011-12-12 08:11:18 51°15.66 2°53.641 15.9 306 8 100430 46
2011-12-12 08:11:23 51°15.672 2°53.626 15.9 26 7.9 100440 46
2011-12-12 08:11:28 51°15.685 2°53.611 10.6 303 7.9 100440 46
2011-12-12 08:11:32 51°15.695 2°53.599 15.2 23 7.9 100430 47
2011-12-12 08:11:38 51°15.71 2°53.581 16.7 307 7.9 100430 47
2011-12-12 08:11:43 51°15.723 2°53.566 18.1 24 8 100440 46
2011-12-12 08:11:48 51°15.735 2°53.552 13.8 304 8 100440 46
2011-12-12 08:11:52 51°15.744 2°53.541 12.6 27 8 100430 46
2011-12-12 08:11:58 51°15.759 2°53.524 16.6 307 8 100430 46
2011-12-12 08:12:03 51°15.772 2°53.511 19 21 8 100450 47
2011-12-12 08:12:08 51°15.784 2°53.497 12.2 306 8 100450 47
2011-12-12 08:12:12 51°15.795 2°53.486 13.5 23 7.9 100430 47
2011-12-12 08:12:18 51°15.81 2°53.469 15.6 304 7.9 100430 47
2011-12-12 08:12:23 51°15.823 2°53.456 17.6 24 7.9 100440 46
2011-12-12 08:12:28 51°15.836 2°53.442 17 307 7.9 100440 46
2011-12-12 08:12:32 51°15.846 2°53.431 7.3 26 7.9 100430 45
2011-12-12 08:12:38 51°15.862 2°53.414 15.7 306 7.9 100430 45
2011-12-12 08:12:43 51°15.875 2°53.4 18.4 23 7.9 100440 45
2011-12-12 08:12:48 51°15.887 2°53.386 15.2 308 7.9 100440 45
2011-12-12 08:12:52 51°15.897 2°53.375 17.7 22 7.9 100440 46
2011-12-12 08:12:58 51°15.912 2°53.358 16.8 309 7.9 100440 46
2011-12-12 08:13:03 51°15.925 2°53.343 15.4 24 7.9 100440 45
2011-12-12 08:13:08 51°15.938 2°53.328 16.3 306 7.9 100440 45
2011-12-12 08:13:12 51°15.948 2°53.317 13 24 7.9 100420 46
2011-12-12 08:13:18 51°15.964 2°53.301 9.1 306 7.9 100420 46
2011-12-12 08:13:23 51°15.977 2°53.287 16.9 24 7.9 100430 45
2011-12-12 08:13:28 51°15.99 2°53.274 6.6 302 7.9 100430 45
2011-12-12 08:13:32 51°16.001 2°53.264 14.1 25 7.9 100430 45
2011-12-12 08:13:38 51°16.017 2°53.249 10.9 305 7.9 100430 45
2011-12-12 08:13:43 51°16.03 2°53.237 13.2 23 7.9 100440 45
2011-12-12 08:13:48 51°16.044 2°53.224 7.2 310 7.9 100440 45
2011-12-12 08:13:52 51°16.054 2°53.216 16.2 21 8 100450 46
2011-12-12 08:13:58 51°16.07 2°53.204 12.9 285 8 100450 46
2011-12-12 08:14:03 51°16.084 2°53.193 14.7 24 8 100440 46
2011-12-12 08:14:08 51°16.097 2°53.182 16.7 307 8 100440 46
2011-12-12 08:14:13 51°16.11 2°53.171 15 20 8 100430 46
2011-12-12 08:14:18 51°16.124 2°53.16 12.6 307 8 100430 46
2011-12-12 08:14:23 51°16.137 2°53.148 7.3 23 8 100460 46
2011-12-12 08:14:28 51°16.15 2°53.136 15.7 308 8 100460 46
2011-12-12 08:14:32 51°16.16 2°53.126 13.6 20 8 100440 45
2011-12-12 08:14:38 51°16.176 2°53.113 13.8 308 8 100440 45
2011-12-12 08:14:43 51°16.188 2°53.1 17.1 19 7.9 100440 45
2011-12-12 08:14:48 51°16.201 2°53.088 14.1 309 7.9 100440 45
2011-12-12 08:14:52 51°16.212 2°53.078 16.1 22 8 100440 45
2011-12-12 08:14:58 51°16.227 2°53.062 18.5 279 8 100440 45
2011-12-12 08:15:03 51°16.24 2°53.05 19.5 23 7.9 100440 46
2011-12-12 08:15:08 51°16.254 2°53.039 14.6 307 7.9 100440 46
2011-12-12 08:15:12 51°16.264 2°53.029 14.9 24 8 100450 46
2011-12-12 08:15:18 51°16.28 2°53.015 12.5 302 8 100450 46
2011-12-12 08:15:23 51°16.293 2°53.003 13.7 28 8 100440 45
2011-12-12 08:15:28 51°16.306 2°52.992 13.3 302 8 100440 45
2011-12-12 08:15:32 51°16.316 2°52.983 16.5 24 8 100440 46
2011-12-12 08:15:38 51°16.332 2°52.971 14.1 307 8 100440 46
2011-12-12 08:15:43 51°16.345 2°52.959 11.8 22 8 100440 46
2011-12-12 08:15:48 51°16.358 2°52.948 18.8 305 8 100440 46
2011-12-12 08:15:52 51°16.368 2°52.938 17.2 23 8 100450 46
2011-12-12 08:15:58 51°16.383 2°52.924 13.7 284 8 100450 46
2011-12-12 08:16:03 51°16.396 2°52.912 15.2 21 8 100450 46
2011-12-12 08:16:08 51°16.409 2°52.9 17 305 8 100450 46
2011-12-12 08:16:12 51°16.42 2°52.891 16.1 23 8 100450 47
2011-12-12 08:16:18 51°16.436 2°52.877 17 309 8 100450 47
2011-12-12 08:16:23 51°16.449 2°52.865 17 21 8 100460 46
2011-12-12 08:16:28 51°16.462 2°52.853 7.7 305 8 100460 46
2011-12-12 08:16:32 51°16.472 2°52.844 16.6 22 8 100440 47
2011-12-12 08:16:38 51°16.489 2°52.832 14.5 306 8 100440 47
2011-12-12 08:16:43 51°16.503 2°52.821 16.5 21 8 100440 46
2011-12-12 08:16:48 51°16.517 2°52.812 13.9 304 8 100440 46
2011-12-12 08:16:52 51°16.528 2°52.805 15.8 26 8 100440 46
2011-12-12 08:16:58 51°16.545 2°52.794 16.6 308 8 100440 46
2011-12-12 08:17:03 51°16.559 2°52.785 12.5 23 8 100450 47
2011-12-12 08:17:08 51°16.573 2°52.777 11.8 306 8 100450 47
2011-12-12 08:17:13 51°16.587 2°52.77 10.9 20 8 100450 47
2011-12-12 08:17:18 51°16.601 2°52.763 15.4 306 8 100450 47
2011-12-12 08:17:23 51°16.615 2°52.755 14.1 25 8 100460 47
2011-12-12 08:17:28 51°16.629 2°52.748 13.3 303 8 100460 47
2011-12-12 08:17:32 51°16.641 2°52.742 14.7 20 8 100480 47
2011-12-12 08:17:38 51°16.658 2°52.733 18.6 309 8 100480 47
2011-12-12 08:17:43 51°16.672 2°52.725 20.2 23 8 100460 47
2011-12-12 08:17:48 51°16.686 2°52.717 17.7 306 8 100460 47
2011-12-12 08:17:52 51°16.697 2°52.711 4.8 24 8 100450 47
2011-12-12 08:17:58 51°16.714 2°52.701 14.2 282 8 100450 47
2011-12-12 08:18:03 51°16.728 2°52.693 11.7 21 8 100460 47
2011-12-12 08:18:08 51°16.742 2°52.686 15.6 306 8 100460 47
2011-12-12 08:18:12 51°16.753 2°52.681 12.5 24 8 100440 47
2011-12-12 08:18:18 51°16.769 2°52.671 15.4 302 8 100440 47
2011-12-12 08:18:23 51°16.783 2°52.664 13.4 21 8 100450 47
2011-12-12 08:18:28 51°16.797 2°52.656 16.2 306 8 100450 47
2011-12-12 08:18:32 51°16.808 2°52.65 12.9 23 8 100430 47
2011-12-12 08:18:38 51°16.825 2°52.641 13.2 306 8 100430 47
2011-12-12 08:18:43 51°16.838 2°52.634 14.5 24 8 100450 47
2011-12-12 08:18:48 51°16.852 2°52.627 16.7 302 8 100450 47
2011-12-12 08:18:52 51°16.863 2°52.62 12.2 25 8 100440 47
2011-12-12 08:18:58 51°16.879 2°52.611 13 306 8 100440 47
2011-12-12 08:19:03 51°16.893 2°52.602 6.4 22 8 100440 47
2011-12-12 08:19:08 51°16.907 2°52.594 13.5 304 8 100440 47
2011-12-12 08:19:12 51°16.918 2°52.588 14.4 24 8 100450 46
2011-12-12 08:19:18 51°16.935 2°52.578 17.4 309 8 100450 46
2011-12-12 08:19:23 51°16.948 2°52.571 17.9 21 8 100450 47
2011-12-12 08:19:28 51°16.961 2°52.562 15.4 304 8 100450 47
2011-12-12 08:19:32 51°16.972 2°52.555 13.9 22 8 100470 47
2011-12-12 08:19:38 51°16.988 2°52.544 15.4 309 8 100470 47
2011-12-12 08:19:43 51°17.001 2°52.537 13.7 24 8 100430 47
2011-12-12 08:19:48 51°17.015 2°52.53 18.2 303 8 100430 47
2011-12-12 08:19:52 51°17.025 2°52.524 14.6 21 8 100440 47
2011-12-12 08:19:58 51°17.042 2°52.514 15.6 284 8 100440 47
2011-12-12 08:20:03 51°17.055 2°52.506 12.5 22 8 100440 47
2011-12-12 08:20:08 51°17.068 2°52.499 16.6 307 8 100440 47
2011-12-12 08:20:12 51°17.079 2°52.493 7.8 25 8 100460 47
2011-12-12 08:20:17 51°17.092 2°52.484 7.4 306 8 100460 47
2011-12-12 08:20:23 51°17.108 2°52.474 16.1 23 8 100440 47
2011-12-12 08:20:28 51°17.121 2°52.466 7.2 303 8 100440 47
2011-12-12 08:20:32 51°17.132 2°52.46 13.9 23 8 100460 47
2011-12-12 08:20:37 51°17.146 2°52.453 17.2 303 8 100460 47
2011-12-12 08:20:43 51°17.163 2°52.444 12.7 25 8 100450 46
2011-12-12 08:20:48 51°17.176 2°52.437 13.1 307 8 100450 46
2011-12-12 08:20:52 51°17.187 2°52.431 14.1 24 7.9 100430 47
2011-12-12 08:20:58 51°17.203 2°52.422 19.7 305 7.9 100430 47
2011-12-12 08:21:03 51°17.217 2°52.415 16 21 7.9 100450 46
2011-12-12 08:21:08 51°17.231 2°52.407 10.9 309 7.9 100450 46
2011-12-12 08:21:12 51°17.241 2°52.401 17.8 20 7.9 100460 47
2011-12-12 08:21:18 51°17.257 2°52.392 14.9 307 7.9 100460 47
2011-12-12 08:21:23 51°17.271 2°52.384 8 24 7.9 100460 47
2011-12-12 08:21:28 51°17.284 2°52.377 13.4 305 7.9 100460 47
2011-12-12 08:21:32 51°17.295 2°52.371 15.3 24 7.9 100440 46
2011-12-12 08:21:38 51°17.311 2°52.362 16.3 309 7.9 100440 46
2011-12-12 08:21:43 51°17.324 2°52.353 7.3 25 7.9 100450 46
2011-12-12 08:21:48 51°17.337 2°52.344 15.6 306 7.9 100450 46
2011-12-12 08:21:52 51°17.348 2°52.336 16.1 24 7.9 100450 46
2011-12-12 08:21:58 51°17.363 2°52.324 7.7 285 7.9 100450 46
2011-12-12 08:22:03 51°17.377 2°52.313 15.4 20 7.9 100450 45
2011-12-12 08:22:08 51°17.39 2°52.303 18.5 306 7.9 100450 45
2011-12-12 08:22:12 51°17.4 2°52.294 15.7 23 7.9 100450 46
2011-12-12 08:22:18 51°17.415 2°52.28 13 305 7.9 100450 46
2011-12-12 08:22:23 51°17.428 2°52.268 13.3 24 7.9 100450 45
2011-12-12 08:22:28 51°17.441 2°52.257 16.3 307 7.9 100450 45
2011-12-12 08:22:32 51°17.451 2°52.247 12 23 7.9 100450 46
2011-12-12 08:22:38 51°17.466 2°52.233 12.3 302 7.9 100450 46
2011-12-12 08:22:43 51°17.478 2°52.221 18.4 23 7.9 100440 46
2011-12-12 08:22:48 51°17.491 2°52.21 4.4 306 7.9 100440 46
2011-12-12 08:22:53 51°17.503 2°52.2 7.4 23 7.9 100460 45
2011-12-12 08:22:59 51°17.518 2°52.188 15.3 306 7.9 100460 45
2011-12-12 08:23:04 51°17.529 2°52.18 15.4 20 7.9 100460 45
2011-12-12 08:23:10 51°17.544 2°52.17 11.1 307 7.9 100460 45
2011-12-12 08:23:16 51°17.557 2°52.158 18.5 20 7.9 100450 45
2011-12-12 08:23:20 51°17.566 2°52.151 6.6 304 7.9 100450 45
2011-12-12 08:23:25 51°17.578 2°52.141 11.8 26 7.9 100460 44
2011-12-12 08:23:31 51°17.593 2°52.129 15.2 308 7.9 100460 44
2011-12-12 08:23:36 51°17.605 2°52.119 14 23 7.9 100460 45
2011-12-12 08:23:40 51°17.614 2°52.111 12.3 305 7.9 100460 45
2011-12-12 08:23:45 51°17.626 2°52.101 13.8 22 7.9 100450 46
2011-12-12 08:23:50 51°17.639 2°52.091 14.2 305 7.9 100450 46
2011-12-12 08:23:56 51°17.653 2°52.079 17.3 20 7.9 100470 46
2011-12-12 08:24:00 51°17.663 2°52.07 17.6 283 7.9 100470 46
2011-12-12 08:24:05 51°17.675 2°52.059 20 23 7.9 100460 45
2011-12-12 08:24:10 51°17.687 2°52.048 12.8 305 7.9 100460 45
2011-12-12 08:24:15 51°17.699 2°52.037 14.8 24 7.9 100470 46
2011-12-12 08:24:20 51°17.712 2°52.026 14.9 306 7.9 100470 46
2011-12-12 08:24:24 51°17.722 2°52.019 14.2 20 7.9 100450 46
2011-12-12 08:24:29 51°17.734 2°52.008 15 308 7.9 100450 46
2011-12-12 08:24:34 51°17.746 2°51.996 17.5 21 7.9 100460 46
2011-12-12 08:24:39 51°17.759 2°51.984 19.6 305 7.9 100460 46
2011-12-12 08:24:44 51°17.772 2°51.973 17.4 26 7.9 100470 46
2011-12-12 08:24:49 51°17.785 2°51.962 13.5 310 7.9 100470 46
2011-12-12 08:24:54 51°17.797 2°51.95 11.9 22 7.9 100460 47
2011-12-12 08:24:59 51°17.81 2°51.939 12.6 305 7.9 100460 47
2011-12-12 08:25:04 51°17.823 2°51.927 17.8 22 7.9 100450 46
2011-12-12 08:25:08 51°17.834 2°51.917 15.8 307 7.9 100450 46
2011-12-12 08:25:13 51°17.847 2°51.906 12.7 20 7.9 100470 46
2011-12-12 08:25:18 51°17.86 2°51.895 6.8 309 7.9 100470 46
2011-12-12 08:25:23 51°17.873 2°51.883 11.7 24 7.9 100460 47
2011-12-12 08:25:28 51°17.886 2°51.872 12.9 308 7.9 100460 47
2011-12-12 08:25:33 51°17.899 2°51.863 18.1 20 7.9 100460 46
2011-12-12 08:25:38 51°17.912 2°51.851 17 306 7.9 100460 46
2011-12-12 08:25:43 51°17.925 2°51.84 20.5 24 7.9 100450 47
2011-12-12 08:25:48 51°17.938 2°51.828 17 307 7.9 100450 47
2011-12-12 08:25:53 51°17.951 2°51.818 13.3 21 7.9 100470 46
2011-12-12 08:25:58 51°17.964 2°51.806 18.2 286 7.9 100470 46
2011-12-12 08:26:03 51°17.977 2°51.796 22.2 25 7.9 100450 45
2011-12-12 08:26:08 51°17.991 2°51.784 16.9 305 7.9 100450 45
2011-12-12 08:26:12 51°18.001 2°51.775 18.3 21 7.9 100450 45
2011-12-12 08:26:18 51°18.017 2°51.762 17.9 306 7.9 100450 45
2011-12-12 08:26:23 51°18.03 2°51.752 8 22 7.9 100450 45
2011-12-12 08:26:28 51°18.043 2°51.741 20 308 7.9 100450 45
2011-12-12 08:26:32 51°18.054 2°51.733 14.2 23 7.8 100440 44
2011-12-12 08:26:38 51°18.069 2°51.72 16.5 308 7.8 100440 44
2011-12-12 08:26:43 51°18.082 2°51.708 17.2 19 7.9 100450 45
2011-12-12 08:26:48 51°18.096 2°51.697 17.3 306 7.9 100450 45
2011-12-12 08:26:52 51°18.107 2°51.687 17 25 7.9 100440 44
2011-12-12 08:26:58 51°18.123 2°51.674 15.6 302 7.9 100440 44
2011-12-12 08:27:03 51°18.136 2°51.662 13.9 24 7.9 100460 46
2011-12-12 08:27:08 51°18.15 2°51.651 17.6 308 7.9 100460 46
2011-12-12 08:27:12 51°18.16 2°51.642 12.5 23 7.9 100460 45
2011-12-12 08:27:18 51°18.177 2°51.629 16.1 306 7.9 100460 45
2011-12-12 08:27:23 51°18.19 2°51.619 20 22 7.9 100460 45
2011-12-12 08:27:28 51°18.204 2°51.607 17.3 304 7.9 100460 45
2011-12-12 08:27:32 51°18.214 2°51.598 16.2 27 7.9 100460 45
2011-12-12 08:27:38 51°18.23 2°51.584 17.8 306 7.9 100460 45
2011-12-12 08:27:43 51°18.243 2°51.572 16.1 23 7.9 100460 44
2011-12-12 08:27:48 51°18.256 2°51.56 16.1 307 7.9 100460 44
2011-12-12 08:27:52 51°18.267 2°51.551 16.9 22 7.9 100460 45
2011-12-12 08:27:58 51°18.283 2°51.536 13 283 7.9 100460 45
2011-12-12 08:28:03 51°18.296 2°51.524 19.6 22 7.9 100450 45
2011-12-12 08:28:08 51°18.31 2°51.511 18.1 306 7.9 100450 45
2011-12-12 08:28:12 51°18.32 2°51.501 7.8 22 7.9 100460 44
2011-12-12 08:28:18 51°18.336 2°51.486 16.6 307 7.9 100460 44
2011-12-12 08:28:23 51°18.349 2°51.474 17.9 24 7.9 100470 44
2011-12-12 08:28:28 51°18.362 2°51.463 14.7 305 7.9 100470 44
2011-12-12 08:28:33 51°18.375 2°51.451 16.8 25 7.9 100460 45
2011-12-12 08:28:38 51°18.388 2°51.441 16.2 307 7.9 100460 45
2011-12-12 08:28:43 51°18.4 2°51.43 12.6 24 7.9 100460 43
2011-12-12 08:28:48 51°18.414 2°51.419 15.7 306 7.9 100460 43
2011-12-12 08:28:52 51°18.425 2°51.41 13.8 21 7.9 100460 45
2011-12-12 08:28:57 51°18.438 2°51.399 16.5 310 7.9 100460 45
2011-12-12 08:29:03 51°18.454 2°51.386 12.7 22 7.9 100460 45
2011-12-12 08:29:08 51°18.467 2°51.375 16.6 306 7.9 100460 45
2011-12-12 08:29:13 51°18.48 2°51.365 14.2 23 7.9 100460 45
2011-12-12 08:29:19 51°18.495 2°51.354 7.8 303 7.9 100460 45
2011-12-12 08:29:24 51°18.507 2°51.342 12.7 25 7.9 100460 45
2011-12-12 08:29:29 51°18.52 2°51.331 15.4 305 7.9 100460 45
2011-12-12 08:29:34 51°18.533 2°51.32 16.7 24 8 100480 46
2011-12-12 08:29:39 51°18.546 2°51.308 19.1 308 8 100480 46
2011-12-12 08:29:44 51°18.559 2°51.297 16.2 20 8 100470 46
2011-12-12 08:29:49 51°18.572 2°51.285 13.6 305 8 100470 46
2011-12-12 08:29:54 51°18.585 2°51.275 12 23 8 100470 47
2011-12-12 08:30:00 51°18.6 2°51.266 16.8 283 8 100470 47
2011-12-12 08:30:05 51°18.612 2°51.256 7.8 25 8 100470 46
2011-12-12 08:30:11 51°18.626 2°51.244 14.2 310 8 100470 46
2011-12-12 08:30:16 51°18.638 2°51.233 16.6 21 8 100470 46
2011-12-12 08:30:21 51°18.65 2°51.223 16.1 306 8 100470 46
2011-12-12 08:30:26 51°18.662 2°51.212 13.6 21 8 100460 46
2011-12-12 08:30:31 51°18.674 2°51.201 14.6 305 8 100460 46
2011-12-12 08:30:36 51°18.687 2°51.19 12.1 22 8 100470 46
2011-12-12 08:30:40 51°18.697 2°51.182 10.6 303 8 100470 46
2011-12-12 08:30:45 51°18.71 2°51.171 12.9 24 8 100470 45
2011-12-12 08:30:50 51°18.723 2°51.161 4.4 306 8 100470 45
2011-12-12 08:30:55 51°18.736 2°51.15 19.6 24 7.9 100470 46
2011-12-12 08:31:00 51°18.749 2°51.139 16.8 309 7.9 100470 46
2011-12-12 08:31:05 51°18.762 2°51.128 17.9 24 8 100470 45
2011-12-12 08:31:10 51°18.775 2°51.116 16.6 305 8 100470 45
2011-12-12 08:31:14 51°18.786 2°51.107 14.7 24 8 100470 46
2011-12-12 08:31:20 51°18.801 2°51.092 7.9 306 8 100470 46
2011-12-12 08:31:24 51°18.812 2°51.082 17.8 22 8 100470 45
2011-12-12 08:31:29 51°18.825 2°51.071 16.4 305 8 100470 45
2011-12-12 08:31:34 51°18.838 2°51.059 21 21 8 100470 46
2011-12-12 08:31:39 51°18.851 2°51.047 7.3 307 8 100470 46
2011-12-12 08:31:44 51°18.863 2°51.036 17.3 23 7.9 100460 45
2011-12-12 08:31:49 51°18.876 2°51.024 16.4 306 7.9 100460 45
2011-12-12 08:31:54 51°18.889 2°51.012 16.7 27 7.9 100460 45
2011-12-12 08:31:59 51°18.902 2°51.001 12.4 282 7.9 100460 45
2011-12-12 08:32:04 51°18.915 2°50.991 11.9 21 8 100470 45
2011-12-12 08:32:09 51°18.928 2°50.98 7.9 304 8 100470 45
2011-12-12 08:32:14 51°18.941 2°50.968 4.4 25 8 100480 46
2011-12-12 08:32:19 51°18.954 2°50.957 13.8 306 8 100480 46
2011-12-12 08:32:24 51°18.966 2°50.947 12.7 22 8 100470 47
2011-12-12 08:32:30 51°18.982 2°50.935 16.2 307 8 100470 47
2011-12-12 08:32:36 51°18.996 2°50.924 15.2 24 8 100480 46
2011-12-12 08:32:41 51°19.008 2°50.913 6.7 306 8 100480 46
2011-12-12 08:32:46 51°19.02 2°50.903 15.9 23 8 100480 46
2011-12-12 08:32:51 51°19.032 2°50.893 17.7 306 8 100480 46
2011-12-12 08:32:56 51°19.044 2°50.882 14.4 21 8 100480 47
2011-12-12 08:33:01 51°19.057 2°50.871 13.7 305 8 100480 47
2011-12-12 08:33:06 51°19.069 2°50.86 16.4 21 8 100470 46
2011-12-12 08:33:11 51°19.082 2°50.849 15.2 305 8 100470 46
2011-12-12 08:33:16 51°19.095 2°50.837 7.1 24 8 100480 46
2011-12-12 08:33:20 51°19.105 2°50.828 14.2 304 8 100480 46
2011-12-12 08:33:25 51°19.119 2°50.816 13.6 22 7.9 100460 46
2011-12-12 08:33:30 51°19.131 2°50.805 14.1 305 7.9 100460 46
2011-12-12 08:33:35 51°19.144 2°50.792 12 21 8 100470 47
2011-12-12 08:33:40 51°19.157 2°50.78 17 310 8 100470 47
2011-12-12 08:33:44 51°19.168 2°50.771 12.9 23 7.9 100470 46
2011-12-12 08:33:49 51°19.181 2°50.759 14.9 304 7.9 100470 46
2011-12-12 08:33:54 51°19.194 2°50.747 14.5 24 8 100460 47
2011-12-12 08:33:59 51°19.208 2°50.736 17.2 283 8 100460 47
2011-12-12 08:34:04 51°19.221 2°50.724 17.5 22 8 100470 46
2011-12-12 08:34:09 51°19.234 2°50.712 14.2 310 8 100470 46
2011-12-12 08:34:14 51°19.248 2°50.701 8 23 8 100460 47
2011-12-12 08:34:19 51°19.26 2°50.69 17.2 306 8 100460 47
2011-12-12 08:34:24 51°19.273 2°50.679 6.9 23 8 100480 46
2011-12-12 08:34:28 51°19.284 2°50.669 13 306 8 100480 46
2011-12-12 08:34:33 51°19.297 2°50.657 15.3 26 7.9 100470 46
2011-12-12 08:34:38 51°19.31 2°50.645 18 309 7.9 100470 46
2011-12-12 08:34:43 51°19.323 2°50.633 13.1 20 7.9 100460 46
2011-12-12 08:34:48 51°19.336 2°50.62 13.9 306 7.9 100460 46
2011-12-12 08:34:52 51°19.347 2°50.612 18.2 26 7.9 100460 46
2011-12-12 08:34:58 51°19.363 2°50.598 17.9 306 7.9 100460 46
2011-12-12 08:35:03 51°19.376 2°50.587 14.9 21 7.9 100470 46
2011-12-12 08:35:08 51°19.389 2°50.575 14.9 303 7.9 100470 46
2011-12-12 08:35:14 51°19.404 2°50.563 16.5 25 7.9 100470 46
2011-12-12 08:35:19 51°19.416 2°50.551 17.4 306 7.9 100470 46
2011-12-12 08:35:24 51°19.429 2°50.541 15 25 7.9 100460 46
2011-12-12 08:35:28 51°19.44 2°50.532 15.4 306 7.9 100460 46
2011-12-12 08:35:33 51°19.453 2°50.521 15.8 22 7.9 100460 46
2011-12-12 08:35:38 51°19.467 2°50.51 16.3 308 7.9 100460 46
2011-12-12 08:35:43 51°19.481 2°50.499 16.2 23 7.9 100470 46
2011-12-12 08:35:48 51°19.494 2°50.488 13.1 306 7.9 100470 46
2011-12-12 08:35:52 51°19.505 2°50.479 15.4 24 7.9 100460 46
2011-12-12 08:35:58 51°19.521 2°50.465 16.5 285 7.9 100460 46
2011-12-12 08:36:03 51°19.535 2°50.453 4.7 23 8 100470 47
2011-12-12 08:36:08 51°19.549 2°50.441 13.2 309 8 100470 47
2011-12-12 08:36:12 51°19.56 2°50.431 14.8 24 8 100470 46
2011-12-12 08:36:18 51°19.576 2°50.417 15.7 307 8 100470 46
2011-12-12 08:36:23 51°19.59 2°50.404 15 26 7.9 100470 46
2011-12-12 08:36:28 51°19.603 2°50.391 17 308 7.9 100470 46
2011-12-12 08:36:32 51°19.614 2°50.381 14.8 26 7.9 100470 46
2011-12-12 08:36:38 51°19.63 2°50.365 11.4 304 7.9 100470 46
2011-12-12 08:36:43 51°19.644 2°50.352 17.6 26 7.9 100470 46
2011-12-12 08:36:48 51°19.657 2°50.339 15 303 7.9 100470 46
2011-12-12 08:36:52 51°19.668 2°50.329 13 25 7.9 100480 46
2011-12-12 08:36:58 51°19.685 2°50.314 16.5 283 7.9 100480 46
2011-12-12 08:37:03 51°19.699 2°50.302 12.9 21 8 100470 47
2011-12-12 08:37:08 51°19.713 2°50.29 12.8 309 8 100470 47
2011-12-12 08:37:12 51°19.724 2°50.281 12.8 19 8 100470 47
2011-12-12 08:37:18 51°19.741 2°50.268 6.9 305 8 100470 47
2011-12-12 08:37:23 51°19.755 2°50.256 13.2 25 8 100480 46
2011-12-12 08:37:28 51°19.77 2°50.247 14.3 306 8 100480 46
2011-12-12 08:37:32 51°19.781 2°50.237 14.8 21 8 100470 47
2011-12-12 08:37:38 51°19.798 2°50.225 15.3 309 8 100470 47
2011-12-12 08:37:43 51°19.812 2°50.214 13 22 8 100480 48
2011-12-12 08:37:48 51°19.827 2°50.203 11.1 304 8 100480 48
2011-12-12 08:37:52 51°19.838 2°50.195 15.4 21 8 100470 47
2011-12-12 08:37:58 51°19.854 2°50.183 11.3 279 8 100470 47
2011-12-12 08:38:03 51°19.868 2°50.172 17.4 23 8 100470 48
2011-12-12 08:38:08 51°19.883 2°50.162 14.3 311 8 100470 48
2011-12-12 08:38:12 51°19.894 2°50.154 12.9 19 8 100470 48
2011-12-12 08:38:18 51°19.912 2°50.143 17.6 307 8 100470 48
2011-12-12 08:38:23 51°19.926 2°50.133 15.5 23 8.1 100490 48
2011-12-12 08:38:28 51°19.94 2°50.123 15.5 304 8.1 100490 48
2011-12-12 08:38:32 51°19.951 2°50.115 7 23 8 100470 48
2011-12-12 08:38:38 51°19.968 2°50.102 7.3 306 8 100470 48
2011-12-12 08:38:43 51°19.983 2°50.092 14.3 23 8 100470 48
2011-12-12 08:38:48 51°19.996 2°50.083 7.5 304 8 100470 48
2011-12-12 08:38:53 51°20.009 2°50.074 7.5 27 8 100470 48
2011-12-12 08:38:58 51°20.023 2°50.064 11.9 305 8 100470 48
2011-12-12 08:39:03 51°20.036 2°50.053 11.9 21 8 100460 48
2011-12-12 08:39:08 51°20.05 2°50.042 15.5 309 8 100460 48
2011-12-12 08:39:13 51°20.063 2°50.031 17.8 23 8 100450 48
2011-12-12 08:39:18 51°20.076 2°50.021 11.7 307 8 100450 48
2011-12-12 08:39:23 51°20.09 2°50.011 10.5 23 7.9 100470 46
2011-12-12 08:39:28 51°20.102 2°50.001 11.7 309 7.9 100470 46
2011-12-12 08:39:33 51°20.115 2°49.991 15.5 20 7.9 100480 47
2011-12-12 08:39:38 51°20.128 2°49.981 6.6 304 7.9 100480 47
2011-12-12 08:39:43 51°20.141 2°49.97 6.7 24 7.9 100480 48
2011-12-12 08:39:48 51°20.155 2°49.958 14.1 304 7.9 100480 48
2011-12-12 08:39:52 51°20.166 2°49.95 11.5 24 8 100470 47
2011-12-12 08:39:58 51°20.181 2°49.937 11.4 287 8 100470 47
2011-12-12 08:40:03 51°20.195 2°49.926 5.1 24 7.9 100480 48
2011-12-12 08:40:08 51°20.209 2°49.914 1.7 305 7.9 100480 48
2011-12-12 08:40:12 51°20.22 2°49.905 4.6 25 7.9 100470 48
2011-12-12 08:40:19 51°20.239 2°49.891 9.5 310 7.9 100470 48
2011-12-12 08:40:24 51°20.251 2°49.882 13.3 22 8 100460 48
2011-12-12 08:40:30 51°20.267 2°49.871 15.4 307 8 100460 48
2011-12-12 08:40:35 51°20.28 2°49.86 13.4 22 8 100470 48
2011-12-12 08:40:40 51°20.293 2°49.849 13.8 303 8 100470 48
2011-12-12 08:40:44 51°20.304 2°49.84 17 23 8 100470 48
2011-12-12 08:40:49 51°20.317 2°49.83 11.4 305 8 100470 48
2011-12-12 08:40:54 51°20.33 2°49.819 16.9 21 7.9 100480 48
2011-12-12 08:40:59 51°20.343 2°49.809 11.2 305 7.9 100480 48
2011-12-12 08:41:04 51°20.357 2°49.799 16.1 24 7.9 100480 47
2011-12-12 08:41:09 51°20.37 2°49.788 12.2 306 7.9 100480 47
2011-12-12 08:41:14 51°20.383 2°49.778 11.8 23 7.9 100470 48
2011-12-12 08:41:19 51°20.397 2°49.767 7.8 304 7.9 100470 48
2011-12-12 08:41:24 51°20.41 2°49.757 7.4 24 7.9 100480 48
2011-12-12 08:41:28 51°20.421 2°49.748 15 310 7.9 100480 48
2011-12-12 08:41:33 51°20.434 2°49.737 11.5 21 7.9 100460 48
2011-12-12 08:41:38 51°20.448 2°49.726 15.4 307 7.9 100460 48
2011-12-12 08:41:43 51°20.462 2°49.714 13.4 20 7.9 100480 48
2011-12-12 08:41:48 51°20.476 2°49.703 14.1 310 7.9 100480 48
2011-12-12 08:41:53 51°20.489 2°49.692 13.2 23 7.9 100470 48
2011-12-12 08:41:58 51°20.503 2°49.682 14.9 283 7.9 100470 48
2011-12-12 08:42:03 51°20.517 2°49.67 15.2 23 7.9 100490 47
2011-12-12 08:42:08 51°20.53 2°49.659 8.4 305 7.9 100490 47
2011-12-12 08:42:12 51°20.541 2°49.65 16.1 25 7.9 100470 48
2011-12-12 08:42:18 51°20.558 2°49.637 8.2 302 7.9 100470 48
2011-12-12 08:42:23 51°20.571 2°49.626 5.4 25 7.9 100490 48
2011-12-12 08:42:28 51°20.585 2°49.615 13.7 306 7.9 100490 48
2011-12-12 08:42:32 51°20.596 2°49.606 13.3 21 7.9 100480 48
2011-12-12 08:42:38 51°20.612 2°49.593 15.9 308 7.9 100480 48
2011-12-12 08:42:43 51°20.626 2°49.582 12.9 26 7.9 100460 48
2011-12-12 08:42:48 51°20.64 2°49.571 13.4 305 7.9 100460 48
2011-12-12 08:42:52 51°20.65 2°49.562 13.6 25 7.9 100470 47
2011-12-12 08:42:58 51°20.667 2°49.547 10 306 7.9 100470 47
2011-12-12 08:43:03 51°20.68 2°49.535 15 21 7.9 100470 48
2011-12-12 08:43:08 51°20.694 2°49.524 13.8 308 7.9 100470 48
2011-12-12 08:43:13 51°20.708 2°49.514 14.5 20 8 100480 48
2011-12-12 08:43:19 51°20.723 2°49.502 16.3 307 8 100480 48
2011-12-12 08:43:24 51°20.736 2°49.491 13.5 26 7.9 100470 48
2011-12-12 08:43:28 51°20.747 2°49.482 18.3 305 7.9 100470 48
2011-12-12 08:43:33 51°20.761 2°49.472 14.5 24 7.9 100480 47
2011-12-12 08:43:38 51°20.774 2°49.461 12.5 305 7.9 100480 47
2011-12-12 08:43:43 51°20.787 2°49.45 13.3 27 7.9 100460 47
2011-12-12 08:43:48 51°20.8 2°49.439 14.6 309 7.9 100460 47
2011-12-12 08:43:53 51°20.814 2°49.428 12.9 22 7.9 100480 47
2011-12-12 08:43:58 51°20.827 2°49.417 13.6 286 7.9 100480 47
2011-12-12 08:44:03 51°20.841 2°49.406 15.5 21 7.9 100470 47
2011-12-12 08:44:08 51°20.855 2°49.395 11.5 309 7.9 100470 47
2011-12-12 08:44:12 51°20.866 2°49.386 7.7 23 7.9 100470 48
2011-12-12 08:44:18 51°20.883 2°49.372 15.6 307 7.9 100470 48
2011-12-12 08:44:23 51°20.897 2°49.361 14.4 20 7.9 100480 48
2011-12-12 08:44:28 51°20.91 2°49.349 17.3 309 7.9 100480 48
2011-12-12 08:44:32 51°20.922 2°49.34 16.4 23 7.9 100470 48
2011-12-12 08:44:38 51°20.938 2°49.328 7.6 306 7.9 100470 48
2011-12-12 08:44:43 51°20.952 2°49.317 16.2 20 7.9 100470 46
2011-12-12 08:44:48 51°20.966 2°49.306 7.1 305 7.9 100470 46
2011-12-12 08:44:52 51°20.978 2°49.297 12.5 22 7.9 100450 48
2011-12-12 08:44:58 51°20.994 2°49.284 7.9 306 7.9 100450 48
2011-12-12 08:45:03 51°21.008 2°49.273 18.9 23 7.9 100480 47
2011-12-12 08:45:08 51°21.021 2°49.263 12.7 310 7.9 100480 47
2011-12-12 08:45:13 51°21.035 2°49.253 6.6 23 7.9 100460 47
2011-12-12 08:45:18 51°21.048 2°49.242 12.2 306 7.9 100460 47
2011-12-12 08:45:23 51°21.062 2°49.231 14.2 22 7.9 100460 48
2011-12-12 08:45:28 51°21.075 2°49.221 11.5 308 7.9 100460 48
2011-12-12 08:45:32 51°21.086 2°49.212 14.1 26 7.9 100470 47
2011-12-12 08:45:38 51°21.103 2°49.199 16.8 306 7.9 100470 47
2011-12-12 08:45:43 51°21.117 2°49.188 17 20 7.9 100470 48
2011-12-12 08:45:48 51°21.131 2°49.177 11.5 304 7.9 100470 48
2011-12-12 08:45:52 51°21.141 2°49.168 13.5 22 7.9 100480 48
2011-12-12 08:45:58 51°21.158 2°49.154 6.3 282 7.9 100480 48
2011-12-12 08:46:03 51°21.171 2°49.144 11.8 24 7.9 100470 47
2011-12-12 08:46:08 51°21.186 2°49.134 7.3 304 7.9 100470 47
2011-12-12 08:46:12 51°21.197 2°49.125 13.7 23 7.9 100460 48
2011-12-12 08:46:18 51°21.214 2°49.112 15.6 307 7.9 100460 48
2011-12-12 08:46:23 51°21.227 2°49.1 13.1 24 7.9 100480 48
2011-12-12 08:46:28 51°21.241 2°49.088 12.2 304 7.9 100480 48
2011-12-12 08:46:32 51°21.252 2°49.079 17.7 24 7.9 100490 48
2011-12-12 08:46:38 51°21.269 2°49.065 17.6 306 7.9 100490 48
2011-12-12 08:46:43 51°21.283 2°49.053 13.6 26 7.9 100460 46
2011-12-12 08:46:48 51°21.296 2°49.042 15.3 303 7.9 100460 46
2011-12-12 08:46:52 51°21.307 2°49.033 8.7 24 7.9 100490 47
2011-12-12 08:46:58 51°21.324 2°49.02 16.6 306 7.9 100490 47
2011-12-12 08:47:03 51°21.338 2°49.011 8 27 7.9 100460 48
2011-12-12 08:47:08 51°21.351 2°49.001 14.1 304 7.9 100460 48
2011-12-12 08:47:13 51°21.364 2°48.992 7 27 7.9 100480 47
2011-12-12 08:47:18 51°21.377 2°48.981 11.4 307 7.9 100480 47
2011-12-12 08:47:23 51°21.391 2°48.971 15.6 21 7.9 100460 46
2011-12-12 08:47:28 51°21.404 2°48.961 13.2 306 7.9 100460 46
2011-12-12 08:47:32 51°21.415 2°48.953 12.2 23 7.8 100470 47
2011-12-12 08:47:38 51°21.432 2°48.941 12.3 311 7.8 100470 47
2011-12-12 08:47:43 51°21.446 2°48.931 17.4 20 7.9 100480 47
2011-12-12 08:47:48 51°21.46 2°48.921 16.1 304 7.9 100480 47
2011-12-12 08:47:52 51°21.471 2°48.912 6.9 24 7.9 100470 47
2011-12-12 08:47:58 51°21.487 2°48.901 16.4 281 7.9 100470 47
2011-12-12 08:48:03 51°21.5 2°48.89 15.6 23 7.9 100480 47
2011-12-12 08:48:08 51°21.514 2°48.88 15.9 307 7.9 100480 47
2011-12-12 08:48:12 51°21.524 2°48.872 16.2 19 7.9 100470 47
2011-12-12 08:48:18 51°21.541 2°48.859 13 304 7.9 100470 47
2011-12-12 08:48:23 51°21.554 2°48.849 7.1 26 7.9 100480 46
2011-12-12 08:48:28 51°21.567 2°48.837 12.9 309 7.9 100480 46
2011-12-12 08:48:33 51°21.58 2°48.826 11.7 24 7.8 100480 46
2011-12-12 08:48:38 51°21.594 2°48.814 12.5 305 7.8 100480 46
2011-12-12 08:48:43 51°21.608 2°48.802 15.4 25 7.8 100460 46
2011-12-12 08:48:48 51°21.621 2°48.791 15.5 305 7.8 100460 46
2011-12-12 08:48:53 51°21.635 2°48.779 13.4 25 7.9 100480 47
2011-12-12 08:48:58 51°21.648 2°48.766 13.7 308 7.9 100480 47
2011-12-12 08:49:03 51°21.663 2°48.755 7.1 23 7.9 100470 47
2011-12-12 08:49:08 51°21.677 2°48.742 6.6 306 7.9 100470 47
2011-12-12 08:49:12 51°21.688 2°48.732 12.6 25 7.9 100470 47
2011-12-12 08:49:18 51°21.705 2°48.719 12.1 306 7.9 100470 47
2011-12-12 08:49:24 51°21.721 2°48.708 9.7 24 7.9 100480 46
2011-12-12 08:49:28 51°21.732 2°48.699 14.3 304 7.9 100480 46
2011-12-12 08:49:33 51°21.746 2°48.687 15.5 21 7.8 100470 46
2011-12-12 08:49:38 51°21.759 2°48.677 6.4 304 7.8 100470 46
2011-12-12 08:49:44 51°21.775 2°48.665 12.2 24 7.9 100470 47
2011-12-12 08:49:49 51°21.789 2°48.655 14.5 305 7.9 100470 47
2011-12-12 08:49:54 51°21.803 2°48.644 7.3 23 7.9 100480 47
2011-12-12 08:49:59 51°21.817 2°48.634 15.1 287 7.9 100480 47
2011-12-12 08:50:04 51°21.83 2°48.624 6.7 21 7.9 100480 46
2011-12-12 08:50:09 51°21.844 2°48.615 12.1 304 7.9 100480 46
2011-12-12 08:50:15 51°21.86 2°48.605 12.4 23 7.9 100470 47
2011-12-12 08:50:20 51°21.873 2°48.596 6.9 306 7.9 100470 47
2011-12-12 08:50:24 51°21.884 2°48.588 12.6 22 7.8 100470 47
2011-12-12 08:50:29 51°21.897 2°48.579 15 310 7.8 100470 47
2011-12-12 08:50:35 51°21.914 2°48.567 11.3 20 7.8 100480 46
2011-12-12 08:50:40 51°21.927 2°48.557 4.5 306 7.8 100480 46
2011-12-12 08:50:44 51°21.939 2°48.549 16.7 23 7.8 100470 46
2011-12-12 08:50:49 51°21.953 2°48.539 13.4 306 7.8 100470 46
2011-12-12 08:50:54 51°21.967 2°48.528 11.6 23 7.8 100480 47
2011-12-12 08:50:59 51°21.981 2°48.517 15.1 309 7.8 100480 47
2011-12-12 08:51:04 51°21.996 2°48.506 15.3 24 7.8 100470 46
2011-12-12 08:51:08 51°22.007 2°48.498 12.4 307 7.8 100470 46
2011-12-12 08:51:13 51°22.021 2°48.487 14.5 23 7.9 100470 47
2011-12-12 08:51:18 51°22.035 2°48.476 16.5 308 7.9 100470 47
2011-12-12 08:51:23 51°22.049 2°48.465 13.1 21 7.9 100480 47
2011-12-12 08:51:28 51°22.064 2°48.455 13 306 7.9 100480 47
2011-12-12 08:51:32 51°22.075 2°48.447 12.4 23 7.9 100460 47
2011-12-12 08:51:37 51°22.089 2°48.435 14.4 306 7.9 100460 47
2011-12-12 08:51:43 51°22.105 2°48.422 10 23 7.9 100470 47
2011-12-12 08:51:48 51°22.12 2°48.411 12.7 308 7.9 100470 47
2011-12-12 08:51:52 51°22.131 2°48.403 11.6 25 7.9 100480 48
2011-12-12 08:51:58 51°22.147 2°48.392 6.3 278 7.9 100480 48
2011-12-12 08:52:03 51°22.161 2°48.383 11.5 22 7.9 100460 47
2011-12-12 08:52:08 51°22.175 2°48.373 12 306 7.9 100460 47
2011-12-12 08:52:12 51°22.186 2°48.365 13.6 19 7.8 100460 47
2011-12-12 08:52:18 51°22.202 2°48.353 13.2 308 7.8 100460 47
2011-12-12 08:52:23 51°22.216 2°48.342 13.5 22 7.9 100480 48
2011-12-12 08:52:28 51°22.231 2°48.331 13.7 310 7.9 100480 48
2011-12-12 08:52:32 51°22.242 2°48.322 11.5 19 7.8 100480 48
2011-12-12 08:52:38 51°22.259 2°48.309 16.4 304 7.8 100480 48
2011-12-12 08:52:43 51°22.273 2°48.297 12.7 21 7.8 100480 47
2011-12-12 08:52:48 51°22.288 2°48.286 12.2 304 7.8 100480 47
2011-12-12 08:52:52 51°22.299 2°48.277 16.9 22 7.8 100460 47
2011-12-12 08:52:58 51°22.316 2°48.263 11.1 309 7.8 100460 47
2011-12-12 08:53:03 51°22.33 2°48.252 12.3 23 7.8 100460 47
2011-12-12 08:53:08 51°22.344 2°48.241 13.6 304 7.8 100460 47
2011-12-12 08:53:12 51°22.355 2°48.232 7.6 27 7.8 100470 47
2011-12-12 08:53:18 51°22.372 2°48.219 10 310 7.8 100470 47
2011-12-12 08:53:24 51°22.388 2°48.208 13.6 22 7.8 100470 48
2011-12-12 08:53:29 51°22.4 2°48.2 3.4 302 7.8 100470 48
2011-12-12 08:53:35 51°22.414 2°48.189 11.8 24 7.8 100460 47
2011-12-12 08:53:40 51°22.426 2°48.179 14.5 306 7.8 100460 47
2011-12-12 08:53:46 51°22.441 2°48.167 13.9 24 7.8 100480 48
2011-12-12 08:53:51 51°22.454 2°48.156 13 309 7.8 100480 48
2011-12-12 08:53:56 51°22.468 2°48.146 14.7 19 7.8 100450 48
2011-12-12 08:54:00 51°22.479 2°48.138 11.9 278 7.8 100450 48
2011-12-12 08:54:05 51°22.492 2°48.128 14.1 19 7.8 100480 48
2011-12-12 08:54:10 51°22.506 2°48.119 14.5 306 7.8 100480 48
2011-12-12 08:54:15 51°22.519 2°48.108 11.3 25 7.9 100480 48
2011-12-12 08:54:20 51°22.533 2°48.098 12.9 310 7.9 100480 48
2011-12-12 08:54:24 51°22.544 2°48.089 14.9 22 7.8 100470 48
2011-12-12 08:54:29 51°22.558 2°48.079 11.9 310 7.8 100470 48
2011-12-12 08:54:34 51°22.572 2°48.069 11.7 25 7.8 100480 49
2011-12-12 08:54:39 51°22.586 2°48.058 16.5 309 7.8 100480 49
2011-12-12 08:54:44 51°22.599 2°48.048 10.7 22 7.8 100460 48
2011-12-12 08:54:49 51°22.613 2°48.038 12.3 304 7.8 100460 48
2011-12-12 08:54:54 51°22.627 2°48.028 12.4 27 7.9 100470 48
2011-12-12 08:54:59 51°22.64 2°48.017 14.9 309 7.9 100470 48
2011-12-12 08:55:04 51°22.654 2°48.007 17.1 21 7.8 100480 49
2011-12-12 08:55:08 51°22.665 2°47.999 7.3 304 7.8 100480 49
2011-12-12 08:55:13 51°22.678 2°47.987 13.7 24 7.8 100480 48
2011-12-12 08:55:18 51°22.691 2°47.976 11.2 311 7.8 100480 48
2011-12-12 08:55:24 51°22.707 2°47.964 14 22 7.8 100450 47
2011-12-12 08:55:29 51°22.719 2°47.954 6.9 305 7.8 100450 47
2011-12-12 08:55:34 51°22.733 2°47.943 12.9 25 7.8 100470 48
2011-12-12 08:55:39 51°22.746 2°47.933 15.5 307 7.8 100470 48
2011-12-12 08:55:44 51°22.759 2°47.922 11.6 23 7.8 100470 48
2011-12-12 08:55:48 51°22.77 2°47.913 12.3 306 7.8 100470 48
2011-12-12 08:55:53 51°22.784 2°47.901 16.2 21 7.8 100470 47
2011-12-12 08:55:59 51°22.8 2°47.887 13.9 283 7.8 100470 47
2011-12-12 08:56:04 51°22.813 2°47.875 13.5 21 7.8 100470 48
2011-12-12 08:56:08 51°22.824 2°47.866 12.7 304 7.8 100470 48
2011-12-12 08:56:13 51°22.838 2°47.854 13.6 22 7.8 100470 47
2011-12-12 08:56:18 51°22.852 2°47.843 14.3 309 7.8 100470 47
2011-12-12 08:56:23 51°22.866 2°47.833 11.8 19 7.8 100470 49
2011-12-12 08:56:28 51°22.88 2°47.822 10.7 304 7.8 100470 49
2011-12-12 08:56:32 51°22.891 2°47.813 16.1 21 7.8 100470 48
2011-12-12 08:56:38 51°22.907 2°47.8 16.9 306 7.8 100470 48
2011-12-12 08:56:43 51°22.921 2°47.788 11.7 25 7.8 100470 48
2011-12-12 08:56:48 51°22.935 2°47.777 17.7 306 7.8 100470 48
2011-12-12 08:56:52 51°22.947 2°47.769 7.4 26 7.8 100460 47
2011-12-12 08:56:58 51°22.963 2°47.755 12.3 306 7.8 100460 47
2011-12-12 08:57:03 51°22.978 2°47.745 14 24 7.8 100460 46
2011-12-12 08:57:08 51°22.992 2°47.734 13.5 307 7.8 100460 46
2011-12-12 08:57:12 51°23.004 2°47.726 17.7 22 7.8 100460 47
2011-12-12 08:57:18 51°23.021 2°47.714 7.6 307 7.8 100460 47
2011-12-12 08:57:23 51°23.036 2°47.703 11.1 21 7.8 100470 48
2011-12-12 08:57:28 51°23.05 2°47.694 6.8 304 7.8 100470 48
2011-12-12 08:57:32 51°23.062 2°47.686 15.5 27 7.8 100470 47
2011-12-12 08:57:38 51°23.079 2°47.676 14.2 307 7.8 100470 47
2011-12-12 08:57:43 51°23.094 2°47.666 13.4 23 7.8 100470 47
2011-12-12 08:57:48 51°23.108 2°47.658 6.6 306 7.8 100470 47
2011-12-12 08:57:53 51°23.123 2°47.649 12.3 18 7.8 100450 46
2011-12-12 08:57:58 51°23.137 2°47.641 15.8 286 7.8 100450 46
2011-12-12 08:58:03 51°23.151 2°47.632 6.6 21 7.8 100470 45
2011-12-12 08:58:08 51°23.166 2°47.624 12.7 311 7.8 100470 45
2011-12-12 08:58:12 51°23.177 2°47.616 13.1 20 7.8 100470 47
2011-12-12 08:58:18 51°23.193 2°47.606 11.9 302 7.8 100470 47
2011-12-12 08:58:23 51°23.207 2°47.597 12.6 24 7.8 100460 47
2011-12-12 08:58:28 51°23.221 2°47.588 10.1 306 7.8 100460 47
2011-12-12 08:58:32 51°23.232 2°47.581 9.9 22 7.8 100470 47
2011-12-12 08:58:38 51°23.249 2°47.57 11.7 305 7.8 100470 47
2011-12-12 08:58:43 51°23.263 2°47.561 10.5 24 7.8 100490 48
2011-12-12 08:58:48 51°23.277 2°47.551 13.7 307 7.8 100490 48
2011-12-12 08:58:52 51°23.289 2°47.543 13.6 21 7.8 100470 48
2011-12-12 08:58:58 51°23.305 2°47.531 11.4 306 7.8 100470 48
2011-12-12 08:59:03 51°23.32 2°47.521 13.5 247 7.8 100480 48
2011-12-12 08:59:08 51°23.334 2°47.512 11.5 305 7.8 100480 48
2011-12-12 08:59:13 51°23.348 2°47.504 11.8 21 7.8 100470 49
2011-12-12 08:59:18 51°23.362 2°47.495 15.2 309 7.8 100470 49
2011-12-12 08:59:23 51°23.376 2°47.484 11.8 24 7.8 100480 48
2011-12-12 08:59:28 51°23.39 2°47.475 4.4 304 7.8 100480 48
2011-12-12 08:59:33 51°23.404 2°47.465 11.8 22 7.9 100460 49
2011-12-12 08:59:38 51°23.419 2°47.456 12.2 303 7.9 100460 49
2011-12-12 08:59:43 51°23.433 2°47.446 16.3 23 7.9 100480 48
2011-12-12 08:59:48 51°23.447 2°47.437 13.9 306 7.9 100480 48
2011-12-12 08:59:52 51°23.459 2°47.429 10.3 26 7.9 100470 49
2011-12-12 08:59:58 51°23.476 2°47.418 14.6 280 7.9 100470 49
2011-12-12 09:00:03 51°23.491 2°47.408 11.2 23 7.9 100480 47
2011-12-12 09:00:08 51°23.505 2°47.398 12.5 304 7.9 100480 47
2011-12-12 09:00:12 51°23.517 2°47.39 6.7 25 7.8 100470 47
2011-12-12 09:00:18 51°23.534 2°47.379 12.1 307 7.8 100470 47
2011-12-12 09:00:23 51°23.549 2°47.369 12.8 21 7.8 100470 47
2011-12-12 09:00:28 51°23.563 2°47.358 6.6 305 7.8 100470 47
2011-12-12 09:00:32 51°23.574 2°47.349 11.3 24 7.8 100480 47
2011-12-12 09:00:38 51°23.592 2°47.337 13.6 309 7.8 100480 47
2011-12-12 09:00:43 51°23.606 2°47.326 6.1 24 7.8 100480 47
2011-12-12 09:00:48 51°23.62 2°47.316 6.8 303 7.8 100480 47
2011-12-12 09:00:52 51°23.631 2°47.307 11 23 7.8 100470 49
2011-12-12 09:00:58 51°23.649 2°47.295 12.8 307 7.8 100470 49
2011-12-12 09:01:03 51°23.663 2°47.285 10 23 7.9 100470 49
2011-12-12 09:01:08 51°23.677 2°47.274 12.4 306 7.9 100470 49
2011-12-12 09:01:13 51°23.691 2°47.265 12.6 24 7.9 100480 49
2011-12-12 09:01:18 51°23.706 2°47.256 6 303 7.9 100480 49
2011-12-12 09:01:23 51°23.719 2°47.245 14.9 25 7.9 100480 49
2011-12-12 09:01:28 51°23.734 2°47.236 16.7 311 7.9 100480 49
2011-12-12 09:01:32 51°23.745 2°47.228 15.2 22 7.9 100490 49
2011-12-12 09:01:38 51°23.762 2°47.218 7.3 304 7.9 100490 49
2011-12-12 09:01:43 51°23.776 2°47.208 15.4 21 7.9 100480 49
2011-12-12 09:01:48 51°23.79 2°47.2 13.8 307 7.9 100480 49
2011-12-12 09:01:52 51°23.802 2°47.192 14.4 23 7.9 100470 49
2011-12-12 09:01:58 51°23.817 2°47.182 7.6 282 7.9 100470 49
2011-12-12 09:02:03 51°23.831 2°47.172 7.6 25 7.9 100470 49
2011-12-12 09:02:08 51°23.845 2°47.164 16.6 306 7.9 100470 49
2011-12-12 09:02:12 51°23.856 2°47.156 13.5 22 7.9 100460 48
2011-12-12 09:02:18 51°23.873 2°47.145 12.1 309 7.9 100460 48
2011-12-12 09:02:23 51°23.887 2°47.136 11.9 19 7.9 100480 48
2011-12-12 09:02:28 51°23.901 2°47.126 12.5 306 7.9 100480 48
2011-12-12 09:02:32 51°23.913 2°47.119 13.9 23 7.9 100480 47
2011-12-12 09:02:38 51°23.93 2°47.107 15 310 7.9 100480 47
2011-12-12 09:02:43 51°23.945 2°47.097 9.6 26 7.9 100470 49
2011-12-12 09:02:48 51°23.959 2°47.087 11.7 306 7.9 100470 49
2011-12-12 09:02:52 51°23.97 2°47.08 6.5 24 7.9 100480 48
2011-12-12 09:02:58 51°23.989 2°47.07 13.5 305 7.9 100480 48
2011-12-12 09:03:03 51°24.002 2°47.06 11.9 21 7.9 100470 48
2011-12-12 09:03:08 51°24.017 2°47.052 6 306 7.9 100470 48
2011-12-12 09:03:12 51°24.027 2°47.043 12.8 23 7.9 100480 48
2011-12-12 09:03:18 51°24.044 2°47.033 6.8 304 7.9 100480 48
2011-12-12 09:03:23 51°24.058 2°47.023 11.7 24 7.9 100470 46
2011-12-12 09:03:28 51°24.072 2°47.013 14.8 304 7.9 100470 46
2011-12-12 09:03:32 51°24.083 2°47.004 15.6 25 7.9 100510 48
2011-12-12 09:03:38 51°24.1 2°46.993 13.2 304 7.9 100510 48
2011-12-12 09:03:43 51°24.114 2°46.984 10.2 26 7.9 100490 47
2011-12-12 09:03:48 51°24.128 2°46.976 11.8 302 7.9 100490 47
2011-12-12 09:03:52 51°24.14 2°46.969 12.8 25 7.9 100480 47
2011-12-12 09:03:58 51°24.156 2°46.956 10.5 282 7.9 100480 47
2011-12-12 09:04:03 51°24.17 2°46.946 14.2 24 7.9 100470 47
2011-12-12 09:04:08 51°24.184 2°46.936 14.5 306 7.9 100470 47
2011-12-12 09:04:12 51°24.195 2°46.928 14 19 7.9 100480 47
2011-12-12 09:04:18 51°24.212 2°46.916 12.1 310 7.9 100480 47
2011-12-12 09:04:23 51°24.226 2°46.906 11.5 24 7.9 100480 48
2011-12-12 09:04:28 51°24.24 2°46.897 14.8 309 7.9 100480 48
2011-12-12 09:04:33 51°24.255 2°46.888 13.8 21 7.9 100480 47
2011-12-12 09:04:38 51°24.269 2°46.877 14.8 308 7.9 100480 47
2011-12-12 09:04:43 51°24.283 2°46.867 11.8 23 7.9 100480 48
2011-12-12 09:04:48 51°24.297 2°46.857 6 309 7.9 100480 48
2011-12-12 09:04:52 51°24.308 2°46.849 12 25 7.9 100480 48
2011-12-12 09:04:58 51°24.325 2°46.837 11.7 306 7.9 100480 48
2011-12-12 09:05:03 51°24.339 2°46.826 11.3 26 7.9 100480 48
2011-12-12 09:05:08 51°24.354 2°46.817 6.3 306 7.9 100480 48
2011-12-12 09:05:12 51°24.365 2°46.808 6.4 24 7.9 100480 48
2011-12-12 09:05:18 51°24.382 2°46.797 12 311 7.9 100480 48
2011-12-12 09:05:23 51°24.396 2°46.787 10.2 23 8 100500 49
2011-12-12 09:05:28 51°24.411 2°46.778 11.8 306 8 100500 49
2011-12-12 09:05:32 51°24.423 2°46.77 11.3 23 8 100490 48
2011-12-12 09:05:38 51°24.44 2°46.76 12.9 307 8 100490 48
2011-12-12 09:05:43 51°24.454 2°46.75 11.5 26 8 100480 48
2011-12-12 09:05:48 51°24.468 2°46.74 10.9 302 8 100480 48
2011-12-12 09:05:52 51°24.48 2°46.733 10.7 25 7.9 100480 47
2011-12-12 09:05:58 51°24.497 2°46.721 12.3 283 7.9 100480 47
2011-12-12 09:06:03 51°24.511 2°46.711 10.4 19 7.9 100490 46
2011-12-12 09:06:08 51°24.525 2°46.702 6.2 306 7.9 100490 46
2011-12-12 09:06:12 51°24.537 2°46.694 12.7 19 7.9 100480 48
2011-12-12 09:06:18 51°24.554 2°46.685 7.2 305 7.9 100480 48
2011-12-12 09:06:23 51°24.568 2°46.676 13.5 19 7.9 100490 48
2011-12-12 09:06:28 51°24.582 2°46.667 10.1 308 7.9 100490 48
2011-12-12 09:06:33 51°24.596 2°46.657 13.9 24 8 100480 48
2011-12-12 09:06:38 51°24.609 2°46.646 13.1 307 8 100480 48
2011-12-12 09:06:43 51°24.623 2°46.637 13.4 22 7.9 100480 48
2011-12-12 09:06:48 51°24.637 2°46.627 8 307 7.9 100480 48
2011-12-12 09:06:52 51°24.648 2°46.62 14.2 21 8 100470 48
2011-12-12 09:06:58 51°24.665 2°46.608 6.9 306 8 100470 48
2011-12-12 09:07:03 51°24.679 2°46.598 6.6 24 8 100480 47
2011-12-12 09:07:08 51°24.694 2°46.589 13.9 309 8 100480 47
2011-12-12 09:07:12 51°24.705 2°46.582 14 23 7.9 100480 48
2011-12-12 09:07:18 51°24.723 2°46.572 12.3 307 7.9 100480 48
2011-12-12 09:07:23 51°24.736 2°46.563 13.1 23 7.9 100480 48
2011-12-12 09:07:28 51°24.75 2°46.555 6.3 307 7.9 100480 48
2011-12-12 09:07:32 51°24.762 2°46.547 13.7 22 8 100480 49
2011-12-12 09:07:38 51°24.778 2°46.536 11.1 309 8 100480 49
2011-12-12 09:07:43 51°24.792 2°46.528 13.4 19 7.9 100460 47
2011-12-12 09:07:48 51°24.806 2°46.519 14 306 7.9 100460 47
2011-12-12 09:07:52 51°24.817 2°46.512 10.1 22 7.9 100480 47
2011-12-12 09:07:58 51°24.834 2°46.5 11.9 281 7.9 100480 47
2011-12-12 09:08:03 51°24.848 2°46.491 12.6 23 7.9 100480 47
2011-12-12 09:08:08 51°24.863 2°46.482 12.2 304 7.9 100480 47
2011-12-12 09:08:12 51°24.875 2°46.475 13 26 8 100490 48
2011-12-12 09:08:18 51°24.891 2°46.464 12.8 308 8 100490 48
2011-12-12 09:08:23 51°24.906 2°46.455 14.2 19 8 100490 48
2011-12-12 09:08:28 51°24.92 2°46.445 13.1 304 8 100490 48
2011-12-12 09:08:32 51°24.931 2°46.438 12.5 25 8 100480 48
2011-12-12 09:08:38 51°24.948 2°46.426 12.8 309 8 100480 48
2011-12-12 09:08:43 51°24.962 2°46.417 14.4 23 7.9 100490 47
2011-12-12 09:08:48 51°24.977 2°46.408 5.8 304 7.9 100490 47
2011-12-12 09:08:52 51°24.988 2°46.4 11 20 7.9 100480 47
2011-12-12 09:08:58 51°25.005 2°46.391 13.4 301 7.9 100480 47
2011-12-12 09:09:03 51°25.019 2°46.381 12.9 20 7.9 100470 47
2011-12-12 09:09:08 51°25.033 2°46.372 13.3 310 7.9 100470 47
2011-12-12 09:09:12 51°25.044 2°46.365 9.8 21 7.9 100470 46
2011-12-12 09:09:18 51°25.061 2°46.353 12.9 303 7.9 100470 46
2011-12-12 09:09:23 51°25.075 2°46.344 11.9 28 7.9 100500 47
2011-12-12 09:09:28 51°25.089 2°46.334 13.3 303 7.9 100500 47
2011-12-12 09:09:32 51°25.1 2°46.325 13.3 22 7.9 100480 47
2011-12-12 09:09:38 51°25.117 2°46.314 7 304 7.9 100480 47
2011-12-12 09:09:43 51°25.132 2°46.305 11.5 23 7.9 100480 47
2011-12-12 09:09:48 51°25.146 2°46.297 11.4 305 7.9 100480 47
2011-12-12 09:09:53 51°25.159 2°46.288 15 23 7.9 100490 47
2011-12-12 09:09:58 51°25.173 2°46.278 15.4 282 7.9 100490 47
2011-12-12 09:10:03 51°25.187 2°46.269 14.4 25 7.9 100470 46
2011-12-12 09:10:08 51°25.2 2°46.259 17 308 7.9 100470 46
2011-12-12 09:10:12 51°25.212 2°46.252 12.6 21 7.9 100460 46
2011-12-12 09:10:17 51°25.226 2°46.243 13.6 306 7.9 100460 46
2011-12-12 09:10:23 51°25.242 2°46.231 14.4 23 7.9 100480 46
2011-12-12 09:10:28 51°25.256 2°46.222 13.9 304 7.9 100480 46
2011-12-12 09:10:32 51°25.268 2°46.215 15.9 26 7.9 100470 46
2011-12-12 09:10:37 51°25.282 2°46.205 11 304 7.9 100470 46
2011-12-12 09:10:43 51°25.299 2°46.195 13.3 26 7.9 100470 46
2011-12-12 09:10:48 51°25.314 2°46.188 13.8 310 7.9 100470 46
2011-12-12 09:10:52 51°25.325 2°46.18 6.5 25 7.9 100480 45
2011-12-12 09:10:58 51°25.343 2°46.169 14.2 309 7.9 100480 45
2011-12-12 09:11:03 51°25.357 2°46.161 14.7 25 7.9 100480 46
2011-12-12 09:11:08 51°25.372 2°46.152 11.2 308 7.9 100480 46
2011-12-12 09:11:12 51°25.383 2°46.145 7 23 7.9 100480 45
2011-12-12 09:11:18 51°25.4 2°46.134 17.9 303 7.9 100480 45
2011-12-12 09:11:23 51°25.414 2°46.124 15.2 21 7.9 100480 44
2011-12-12 09:11:28 51°25.428 2°46.115 16.8 303 7.9 100480 44
2011-12-12 09:11:32 51°25.439 2°46.107 11.6 26 7.9 100480 46
2011-12-12 09:11:38 51°25.457 2°46.097 13.8 307 7.9 100480 46
2011-12-12 09:11:43 51°25.471 2°46.089 15.2 21 7.9 100480 46
2011-12-12 09:11:48 51°25.485 2°46.079 6.3 310 7.9 100480 46
2011-12-12 09:11:52 51°25.496 2°46.073 13.2 22 8 100480 47
2011-12-12 09:11:58 51°25.513 2°46.061 14.8 286 8 100480 47
2011-12-12 09:12:03 51°25.527 2°46.052 14.3 21 8 100480 47
2011-12-12 09:12:08 51°25.541 2°46.042 13.7 306 8 100480 47
2011-12-12 09:12:12 51°25.553 2°46.035 13 27 8 100480 47
2011-12-12 09:12:18 51°25.569 2°46.025 12.7 310 8 100480 47
2011-12-12 09:12:23 51°25.583 2°46.015 11.5 23 8 100490 46
2011-12-12 09:12:28 51°25.597 2°46.006 11 306 8 100490 46
2011-12-12 09:12:33 51°25.611 2°45.997 14 21 8 100500 47
2011-12-12 09:12:38 51°25.625 2°45.989 12.5 305 8 100500 47
2011-12-12 09:12:43 51°25.638 2°45.979 11 22 8 100490 47
2011-12-12 09:12:48 51°25.653 2°45.971 17.7 305 8 100490 47
2011-12-12 09:12:52 51°25.664 2°45.963 6.5 24 8 100500 47
2011-12-12 09:12:58 51°25.681 2°45.952 12.9 304 8 100500 47
2011-12-12 09:13:03 51°25.695 2°45.943 14.7 24 8 100500 47
2011-12-12 09:13:08 51°25.709 2°45.934 12.2 305 8 100500 47
2011-12-12 09:13:12 51°25.721 2°45.927 14 26 8 100490 47
2011-12-12 09:13:18 51°25.738 2°45.917 9.7 304 8 100490 47
2011-12-12 09:13:23 51°25.752 2°45.909 14.7 25 8 100510 47
2011-12-12 09:13:28 51°25.766 2°45.901 13.7 303 8 100510 47
2011-12-12 09:13:33 51°25.779 2°45.893 7.1 24 8 100500 47
2011-12-12 09:13:38 51°25.794 2°45.885 6.7 304 8 100500 47
2011-12-12 09:13:43 51°25.807 2°45.876 12 22 8 100510 47
2011-12-12 09:13:48 51°25.821 2°45.866 13.2 309 8 100510 47
2011-12-12 09:13:52 51°25.833 2°45.86 14.7 22 8 100510 48
2011-12-12 09:13:58 51°25.85 2°45.849 7.6 286 8 100510 48
2011-12-12 09:14:03 51°25.864 2°45.84 7 24 8 100500 46
2011-12-12 09:14:08 51°25.878 2°45.832 7 302 8 100500 46
2011-12-12 09:14:12 51°25.89 2°45.825 6.8 27 8 100490 48
2011-12-12 09:14:18 51°25.907 2°45.816 13.8 304 8 100490 48
2011-12-12 09:14:23 51°25.922 2°45.808 13.1 20 8 100500 48
2011-12-12 09:14:28 51°25.936 2°45.799 13.6 308 8 100500 48
2011-12-12 09:14:32 51°25.947 2°45.792 15.1 23 8 100490 47
2011-12-12 09:14:38 51°25.965 2°45.781 12.5 304 8 100490 47
2011-12-12 09:14:43 51°25.979 2°45.772 12 27 8 100500 46
2011-12-12 09:14:48 51°25.993 2°45.762 13.1 306 8 100500 46
2011-12-12 09:14:52 51°26.004 2°45.756 16.4 24 8 100500 47
2011-12-12 09:14:58 51°26.021 2°45.744 14.7 304 8 100500 47
2011-12-12 09:15:03 51°26.035 2°45.734 6.5 27 8 100480 47
2011-12-12 09:15:08 51°26.049 2°45.724 11.2 304 8 100480 47
2011-12-12 09:15:12 51°26.061 2°45.717 15.4 27 8 100490 46
2011-12-12 09:15:18 51°26.078 2°45.705 13.4 304 8 100490 46
2011-12-12 09:15:23 51°26.092 2°45.696 7.9 24 8 100490 47
2011-12-12 09:15:28 51°26.106 2°45.687 13.2 309 8 100490 47
2011-12-12 09:15:32 51°26.117 2°45.678 15 23 8 100510 47
2011-12-12 09:15:38 51°26.135 2°45.667 13.7 310 8 100510 47
2011-12-12 09:15:43 51°26.149 2°45.659 12.1 21 8 100500 47
2011-12-12 09:15:48 51°26.163 2°45.649 6.9 309 8 100500 47
2011-12-12 09:15:53 51°26.177 2°45.639 12.1 22 8 100490 46
2011-12-12 09:15:58 51°26.191 2°45.63 6.8 284 8 100490 46
2011-12-12 09:16:03 51°26.205 2°45.621 12 27 8 100480 47
2011-12-12 09:16:08 51°26.219 2°45.61 14 305 8 100480 47
2011-12-12 09:16:12 51°26.23 2°45.603 11.2 23 8 100500 47
2011-12-12 09:16:18 51°26.247 2°45.591 7.1 306 8 100500 47
2011-12-12 09:16:23 51°26.261 2°45.583 14 19 8.1 100500 47
2011-12-12 09:16:28 51°26.275 2°45.575 13.1 307 8.1 100500 47
2011-12-12 09:16:32 51°26.286 2°45.567 11.1 24 8.1 100500 48
2011-12-12 09:16:38 51°26.302 2°45.557 7.1 306 8.1 100500 48
2011-12-12 09:16:43 51°26.315 2°45.549 13.8 22 8.1 100510 46
2011-12-12 09:16:48 51°26.329 2°45.541 13.2 309 8.1 100510 46
2011-12-12 09:16:54 51°26.344 2°45.53 13.6 22 8.1 100490 47
2011-12-12 09:16:59 51°26.358 2°45.521 10.8 306 8.1 100490 47
2011-12-12 09:17:04 51°26.371 2°45.512 10.9 20 8.1 100510 48
2011-12-12 09:17:08 51°26.382 2°45.504 14 304 8.1 100510 48
2011-12-12 09:17:13 51°26.397 2°45.496 5.5 25 8.1 100490 48
2011-12-12 09:17:18 51°26.411 2°45.486 5.7 305 8.1 100490 48
2011-12-12 09:17:23 51°26.424 2°45.477 11.2 21 8.1 100510 48
2011-12-12 09:17:28 51°26.438 2°45.467 15.3 301 8.1 100510 48
2011-12-12 09:17:33 51°26.452 2°45.457 13.9 22 8.1 100510 48
2011-12-12 09:17:38 51°26.467 2°45.448 6 306 8.1 100510 48
2011-12-12 09:17:43 51°26.481 2°45.438 6.5 23 8.2 100500 48
2011-12-12 09:17:48 51°26.495 2°45.428 13.2 311 8.2 100500 48
2011-12-12 09:17:52 51°26.506 2°45.42 14.4 24 8.2 100510 48
2011-12-12 09:17:58 51°26.523 2°45.409 11.8 282 8.2 100510 48
2011-12-12 09:18:03 51°26.537 2°45.4 12 26 8.2 100500 48
2011-12-12 09:18:08 51°26.55 2°45.392 7.1 306 8.2 100500 48
2011-12-12 09:18:12 51°26.562 2°45.384 7.6 23 8.1 100490 48
2011-12-12 09:18:18 51°26.579 2°45.374 12.5 307 8.1 100490 48
2011-12-12 09:18:23 51°26.593 2°45.365 10.4 23 8.1 100520 47
2011-12-12 09:18:28 51°26.607 2°45.357 7.2 305 8.1 100520 47
2011-12-12 09:18:32 51°26.619 2°45.35 11.4 23 8.1 100510 48
2011-12-12 09:18:38 51°26.635 2°45.338 14.8 310 8.1 100510 48
2011-12-12 09:18:43 51°26.649 2°45.328 13.9 23 8.1 100490 48
2011-12-12 09:18:48 51°26.663 2°45.319 7.4 309 8.1 100490 48
2011-12-12 09:18:52 51°26.675 2°45.312 13.1 21 8.1 100490 48
2011-12-12 09:18:58 51°26.691 2°45.301 15.6 306 8.1 100490 48
2011-12-12 09:19:03 51°26.706 2°45.291 16.9 24 8.1 100500 47
2011-12-12 09:19:08 51°26.719 2°45.281 12.6 307 8.1 100500 47
2011-12-12 09:19:12 51°26.731 2°45.274 14.1 23 8.1 100480 47
2011-12-12 09:19:18 51°26.748 2°45.261 6.9 304 8.1 100480 47
2011-12-12 09:19:23 51°26.761 2°45.251 6.9 24 8.1 100500 47
2011-12-12 09:19:28 51°26.775 2°45.24 16.1 306 8.1 100500 47
2011-12-12 09:19:32 51°26.786 2°45.23 16.5 21 8.1 100500 47
2011-12-12 09:19:38 51°26.803 2°45.218 12.7 307 8.1 100500 47
2011-12-12 09:19:43 51°26.818 2°45.207 6.6 23 8.1 100500 48
2011-12-12 09:19:48 51°26.832 2°45.196 14.9 307 8.1 100500 48
2011-12-12 09:19:52 51°26.843 2°45.187 12.6 23 8.1 100490 47
2011-12-12 09:19:58 51°26.86 2°45.174 6.2 282 8.1 100490 47
2011-12-12 09:20:03 51°26.874 2°45.164 10.6 24 8.1 100500 47
2011-12-12 09:20:08 51°26.888 2°45.153 10.8 307 8.1 100500 47
2011-12-12 09:20:12 51°26.9 2°45.145 10.2 23 8.1 100500 47
2011-12-12 09:20:18 51°26.916 2°45.132 9.8 305 8.1 100500 47
2011-12-12 09:20:23 51°26.93 2°45.12 10.9 24 8.1 100490 47
2011-12-12 09:20:28 51°26.945 2°45.11 14.1 305 8.1 100490 47
2011-12-12 09:20:32 51°26.956 2°45.101 12.3 20 8.1 100510 47
2011-12-12 09:20:38 51°26.973 2°45.089 13.5 307 8.1 100510 47
2011-12-12 09:20:43 51°26.988 2°45.079 13.6 23 8.1 100510 47
2011-12-12 09:20:48 51°27.001 2°45.069 13.7 306 8.1 100510 47
2011-12-12 09:20:53 51°27.015 2°45.059 14.1 20 8.1 100500 48
2011-12-12 09:20:58 51°27.029 2°45.049 14.5 283 8.1 100500 48
2011-12-12 09:21:03 51°27.043 2°45.039 12.5 18 8.1 100520 47
2011-12-12 09:21:08 51°27.056 2°45.03 6.1 306 8.1 100520 47
2011-12-12 09:21:12 51°27.068 2°45.022 11.2 25 8.1 100490 48
2011-12-12 09:21:18 51°27.084 2°45.011 13.5 310 8.1 100490 48
2011-12-12 09:21:23 51°27.099 2°45 14.6 247 8.1 100500 47
2011-12-12 09:21:28 51°27.112 2°44.991 10.8 310 8.1 100500 47
2011-12-12 09:21:32 51°27.123 2°44.983 13.5 24 8.1 100510 47
2011-12-12 09:21:37 51°27.138 2°44.972 3.6 304 8.1 100510 47
2011-12-12 09:21:43 51°27.154 2°44.962 12.1 26 8.1 100510 47
2011-12-12 09:21:48 51°27.169 2°44.954 6.1 306 8.1 100510 47
2011-12-12 09:21:54 51°27.184 2°44.942 15.6 22 8.1 100510 47
2011-12-12 09:21:59 51°27.198 2°44.933 8.7 306 8.1 100510 47
2011-12-12 09:22:04 51°27.211 2°44.924 5.7 25 8.1 100500 47
2011-12-12 09:22:09 51°27.225 2°44.916 13.6 310 8.1 100500 47
2011-12-12 09:22:14 51°27.237 2°44.906 12.9 21 8.1 100500 47
2011-12-12 09:22:19 51°27.251 2°44.897 12 305 8.1 100500 47
2011-12-12 09:22:24 51°27.265 2°44.888 11.3 25 8.2 100480 48
2011-12-12 09:22:29 51°27.279 2°44.878 11.2 309 8.2 100480 48
2011-12-12 09:22:34 51°27.292 2°44.868 14.1 23 8.2 100520 48
2011-12-12 09:22:39 51°27.306 2°44.859 16.2 309 8.2 100520 48
2011-12-12 09:22:44 51°27.321 2°44.849 5.1 23 8.2 100510 49
2011-12-12 09:22:48 51°27.332 2°44.84 6.4 306 8.2 100510 49
2011-12-12 09:22:53 51°27.346 2°44.831 10 22 8.2 100510 48
2011-12-12 09:22:58 51°27.361 2°44.821 14.1 310 8.2 100510 48
2011-12-12 09:23:03 51°27.375 2°44.811 12.4 20 8.2 100510 47
2011-12-12 09:23:08 51°27.39 2°44.801 10.7 305 8.2 100510 47
2011-12-12 09:23:12 51°27.401 2°44.793 11.7 26 8.1 100500 47
2011-12-12 09:23:18 51°27.418 2°44.781 11.9 307 8.1 100500 47
2011-12-12 09:23:23 51°27.433 2°44.771 12.4 23 8.1 100490 48
2011-12-12 09:23:28 51°27.447 2°44.76 12.2 305 8.1 100490 48
2011-12-12 09:23:32 51°27.459 2°44.752 16.1 25 8.1 100510 47
2011-12-12 09:23:38 51°27.476 2°44.742 11.6 303 8.1 100510 47
2011-12-12 09:23:44 51°27.492 2°44.73 11.6 25 8.1 100520 47
2011-12-12 09:23:49 51°27.506 2°44.719 12.6 308 8.1 100520 47
2011-12-12 09:23:54 51°27.52 2°44.709 13.1 20 8.1 100510 47
2011-12-12 09:23:59 51°27.534 2°44.698 11.1 283 8.1 100510 47
2011-12-12 09:24:04 51°27.549 2°44.688 14.5 26 8.1 100530 47
2011-12-12 09:24:08 51°27.56 2°44.681 13.4 309 8.1 100530 47
2011-12-12 09:24:13 51°27.575 2°44.67 10.8 20 8.1 100510 47
2011-12-12 09:24:18 51°27.589 2°44.66 12.1 303 8.1 100510 47
2011-12-12 09:24:23 51°27.603 2°44.649 13 26 8.1 100500 47
2011-12-12 09:24:28 51°27.617 2°44.64 13.4 305 8.1 100500 47
2011-12-12 09:24:32 51°27.629 2°44.632 11.3 26 8.1 100510 47
2011-12-12 09:24:38 51°27.647 2°44.619 6.2 306 8.1 100510 47
2011-12-12 09:24:43 51°27.661 2°44.609 13.4 24 8.1 100510 47
2011-12-12 09:24:48 51°27.675 2°44.599 14.5 306 8.1 100510 47
2011-12-12 09:24:53 51°27.689 2°44.589 11.8 24 8.1 100520 47
2011-12-12 09:24:58 51°27.704 2°44.579 11.4 307 8.1 100520 47
2011-12-12 09:25:03 51°27.718 2°44.568 10.6 20 8.1 100500 47
2011-12-12 09:25:08 51°27.732 2°44.558 13.3 303 8.1 100500 47
2011-12-12 09:25:12 51°27.743 2°44.551 12.2 26 8.1 100510 47
2011-12-12 09:25:18 51°27.76 2°44.539 11.1 306 8.1 100510 47
2011-12-12 09:25:23 51°27.774 2°44.53 10.5 25 8.1 100510 46
2011-12-12 09:25:28 51°27.788 2°44.52 11.7 311 8.1 100510 46
2011-12-12 09:25:32 51°27.799 2°44.511 10.4 22 8.1 100520 46
2011-12-12 09:25:38 51°27.817 2°44.499 10.4 312 8.1 100520 46
2011-12-12 09:25:43 51°27.831 2°44.489 10.8 23 8.1 100500 47
2011-12-12 09:25:48 51°27.845 2°44.479 12 307 8.1 100500 47
2011-12-12 09:25:52 51°27.857 2°44.471 11.3 25 8.1 100510 46
2011-12-12 09:25:58 51°27.874 2°44.459 15 287 8.1 100510 46
2011-12-12 09:26:03 51°27.888 2°44.448 10.6 25 8.1 100500 46
2011-12-12 09:26:08 51°27.903 2°44.438 13.2 306 8.1 100500 46
2011-12-12 09:26:12 51°27.914 2°44.429 11.8 22 8.1 100520 47
2011-12-12 09:26:18 51°27.931 2°44.417 10.6 304 8.1 100520 47
2011-12-12 09:26:23 51°27.945 2°44.408 13.1 22 8.1 100500 46
2011-12-12 09:26:28 51°27.959 2°44.397 16.6 305 8.1 100500 46
2011-12-12 09:26:32 51°27.971 2°44.389 11.2 25 8.1 100510 47
2011-12-12 09:26:38 51°27.987 2°44.377 11.1 308 8.1 100510 47
2011-12-12 09:26:43 51°28.002 2°44.367 13 19 8.1 100510 46
2011-12-12 09:26:48 51°28.016 2°44.357 10.8 309 8.1 100510 46
2011-12-12 09:26:52 51°28.027 2°44.348 13.3 23 8.1 100510 46
2011-12-12 09:26:58 51°28.044 2°44.335 11.1 281 8.1 100510 46
2011-12-12 09:27:03 51°28.059 2°44.326 13.1 23 8.1 100510 46
2011-12-12 09:27:08 51°28.073 2°44.317 13.9 305 8.1 100510 46
2011-12-12 09:27:13 51°28.088 2°44.308 12.5 23 8.1 100510 47
2011-12-12 09:27:18 51°28.102 2°44.299 11.1 308 8.1 100510 47
2011-12-12 09:27:23 51°28.116 2°44.289 13.5 22 8.1 100510 46
2011-12-12 09:27:28 51°28.131 2°44.281 15.1 310 8.1 100510 46
2011-12-12 09:27:32 51°28.142 2°44.272 11.7 19 8.1 100500 47
2011-12-12 09:27:38 51°28.159 2°44.261 6.3 304 8.1 100500 47
2011-12-12 09:27:43 51°28.173 2°44.25 11.8 25 8.1 100490 46
2011-12-12 09:27:48 51°28.187 2°44.242 9.9 306 8.1 100490 46
2011-12-12 09:27:52 51°28.199 2°44.234 11.4 25 8.1 100510 45
2011-12-12 09:27:58 51°28.215 2°44.222 13.9 308 8.1 100510 45
2011-12-12 09:28:03 51°28.229 2°44.213 13.3 23 8.2 100500 47
2011-12-12 09:28:08 51°28.243 2°44.204 11.6 304 8.2 100500 47
2011-12-12 09:28:12 51°28.255 2°44.197 15.5 22 8.2 100510 47
2011-12-12 09:28:18 51°28.272 2°44.185 7 305 8.2 100510 47
2011-12-12 09:28:23 51°28.286 2°44.176 14.6 22 8.2 100510 46
2011-12-12 09:28:28 51°28.3 2°44.165 14.1 304 8.2 100510 46
2011-12-12 09:28:32 51°28.312 2°44.158 6.7 25 8.2 100510 46
2011-12-12 09:28:38 51°28.329 2°44.145 12.4 306 8.2 100510 46
2011-12-12 09:28:43 51°28.343 2°44.135 12.9 20 8.2 100500 47
2011-12-12 09:28:48 51°28.357 2°44.126 10.9 306 8.2 100500 47
2011-12-12 09:28:52 51°28.368 2°44.117 10.5 27 8.2 100500 46
2011-12-12 09:28:58 51°28.386 2°44.105 11.5 283 8.2 100500 46
2011-12-12 09:29:04 51°28.402 2°44.094 6.4 25 8.2 100500 46
2011-12-12 09:29:08 51°28.413 2°44.086 10.2 309 8.2 100500 46
2011-12-12 09:29:13 51°28.427 2°44.075 7 23 8.2 100500 47
2011-12-12 09:29:18 51°28.441 2°44.064 13 304 8.2 100500 47
2011-12-12 09:29:23 51°28.455 2°44.055 7.1 23 8.3 100480 47
2011-12-12 09:29:28 51°28.47 2°44.043 14.3 309 8.3 100480 47
2011-12-12 09:29:32 51°28.481 2°44.036 6.6 21 8.2 100510 47
2011-12-12 09:29:38 51°28.498 2°44.025 11.6 307 8.2 100510 47
2011-12-12 09:29:43 51°28.512 2°44.016 11.7 19 8.2 100500 46
2011-12-12 09:29:48 51°28.526 2°44.006 13.5 308 8.2 100500 46
2011-12-12 09:29:52 51°28.537 2°43.998 14.5 21 8.2 100500 47
2011-12-12 09:29:58 51°28.554 2°43.986 12.7 307 8.2 100500 47
2011-12-12 09:30:03 51°28.568 2°43.977 7 22 8.2 100510 45
2011-12-12 09:30:08 51°28.582 2°43.968 11.9 306 8.2 100510 45
2011-12-12 09:30:12 51°28.593 2°43.96 12.5 24 8.2 100510 46
2011-12-12 09:30:18 51°28.61 2°43.947 11.8 311 8.2 100510 46
2011-12-12 09:30:23 51°28.624 2°43.938 13.1 18 8.2 100490 45
2011-12-12 09:30:28 51°28.638 2°43.929 7 308 8.2 100490 45
2011-12-12 09:30:32 51°28.65 2°43.923 13.6 23 8.2 100500 45
2011-12-12 09:30:38 51°28.666 2°43.912 14.2 309 8.2 100500 45
2011-12-12 09:30:43 51°28.68 2°43.904 14.7 21 8.2 100490 46
2011-12-12 09:30:48 51°28.694 2°43.896 12.8 305 8.2 100490 46
2011-12-12 09:30:53 51°28.707 2°43.886 6.8 23 8.2 100520 46
2011-12-12 09:30:58 51°28.72 2°43.877 12.8 283 8.2 100520 46
2011-12-12 09:31:03 51°28.734 2°43.868 11.6 25 8.2 100490 45
2011-12-12 09:31:08 51°28.748 2°43.859 13 307 8.2 100490 45
2011-12-12 09:31:13 51°28.761 2°43.851 13.4 21 8.2 100510 45
2011-12-12 09:31:18 51°28.775 2°43.84 6.7 304 8.2 100510 45
2011-12-12 09:31:23 51°28.788 2°43.83 11.9 25 8.3 100500 46
2011-12-12 09:31:28 51°28.803 2°43.821 14.7 306 8.3 100500 46
2011-12-12 09:31:32 51°28.814 2°43.813 12.1 26 8.3 100500 45
2011-12-12 09:31:38 51°28.831 2°43.802 11.3 306 8.3 100500 45
2011-12-12 09:31:43 51°28.845 2°43.791 13.1 23 8.2 100500 45
2011-12-12 09:31:48 51°28.86 2°43.782 13 310 8.2 100500 45
2011-12-12 09:31:52 51°28.871 2°43.774 14.1 19 8.2 100490 46
2011-12-12 09:31:58 51°28.889 2°43.761 11.2 308 8.2 100490 46
2011-12-12 09:32:03 51°28.903 2°43.751 13.6 21 8.2 100500 45
2011-12-12 09:32:08 51°28.917 2°43.741 12.6 306 8.2 100500 45
2011-12-12 09:32:12 51°28.929 2°43.733 10.8 27 8.3 100500 45
2011-12-12 09:32:18 51°28.946 2°43.722 10.7 307 8.3 100500 45
2011-12-12 09:32:23 51°28.961 2°43.714 10.6 25 8.3 100510 46
2011-12-12 09:32:28 51°28.974 2°43.704 11.3 304 8.3 100510 46
2011-12-12 09:32:32 51°28.986 2°43.697 14.4 19 8.3 100490 45
2011-12-12 09:32:37 51°29 2°43.687 12.7 306 8.3 100490 45
2011-12-12 09:32:43 51°29.016 2°43.676 15.6 20 8.3 100500 46
2011-12-12 09:32:48 51°29.03 2°43.666 13.7 309 8.3 100500 46
2011-12-12 09:32:52 51°29.041 2°43.658 7.1 26 8.3 100510 46
2011-12-12 09:32:57 51°29.055 2°43.649 13.1 283 8.3 100510 46
2011-12-12 09:33:03 51°29.072 2°43.636 11.1 22 8.3 100500 47
2011-12-12 09:33:08 51°29.086 2°43.625 13 304 8.3 100500 47